sensor_id;sensor_type;location;lat;lon;timestamp;pressure;altitude;pressure_sealevel;temperature;humidity
22930;BME280;11630;42.660;23.292;2023-02-21T00:01:39;68183.45;;;5.79;91.46
22930;BME280;11630;42.660;23.292;2023-02-21T00:04:25;68194.05;;;5.93;91.15
22930;BME280;11630;42.660;23.292;2023-02-21T00:07:12;68140.98;;;5.49;93.02
22930;BME280;11630;42.660;23.292;2023-02-21T00:09:58;68127.98;;;5.37;94.22
22930;BME280;11630;42.660;23.292;2023-02-21T00:12:44;68181.05;;;5.83;92.95
22930;BME280;11630;42.660;23.292;2023-02-21T00:15:31;68158.59;;;5.66;92.75
22930;BME280;11630;42.660;23.292;2023-02-21T00:18:17;68150.97;;;5.54;93.04
22930;BME280;11630;42.660;23.292;2023-02-21T00:21:04;68181.59;;;5.81;92.54
22930;BME280;11630;42.660;23.292;2023-02-21T00:23:52;68187.00;;;5.86;91.87
22930;BME280;11630;42.660;23.292;2023-02-21T00:26:39;68153.67;;;5.57;94.03
22930;BME280;11630;42.660;23.292;2023-02-21T00:29:26;68095.73;;;5.01;96.27
22930;BME280;11630;42.660;23.292;2023-02-21T00:32:13;68110.66;;;5.21;95.72
22930;BME280;11630;42.660;23.292;2023-02-21T00:35:00;68104.97;;;5.12;96.44
22930;BME280;11630;42.660;23.292;2023-02-21T00:37:52;68125.27;;;5.32;95.79
22930;BME280;11630;42.660;23.292;2023-02-21T00:40:38;68145.82;;;5.48;95.20
22930;BME280;11630;42.660;23.292;2023-02-21T00:43:30;68144.48;;;5.51;94.23
22930;BME280;11630;42.660;23.292;2023-02-21T00:46:18;68160.20;;;5.68;94.41
22930;BME280;11630;42.660;23.292;2023-02-21T00:49:06;68092.79;;;5.02;95.72
22930;BME280;11630;42.660;23.292;2023-02-21T00:51:55;68104.72;;;5.16;96.29
22930;BME280;11630;42.660;23.292;2023-02-21T00:54:43;68114.17;;;5.23;96.66
22930;BME280;11630;42.660;23.292;2023-02-21T00:57:30;68140.44;;;5.48;95.93
22930;BME280;11630;42.660;23.292;2023-02-21T01:00:22;68135.55;;;5.41;95.41
22930;BME280;11630;42.660;23.292;2023-02-21T01:03:09;68135.02;;;5.41;95.58
22930;BME280;11630;42.660;23.292;2023-02-21T01:05:55;68157.20;;;5.61;94.75
22930;BME280;11630;42.660;23.292;2023-02-21T01:08:43;68151.26;;;5.56;94.88
22930;BME280;11630;42.660;23.292;2023-02-21T01:11:31;68182.14;;;5.87;94.10
22930;BME280;11630;42.660;23.292;2023-02-21T01:14:18;68163.16;;;5.67;94.03
22930;BME280;11630;42.660;23.292;2023-02-21T01:17:05;68150.17;;;5.55;94.36
22930;BME280;11630;42.660;23.292;2023-02-21T01:19:52;68162.89;;;5.65;93.86
22930;BME280;11630;42.660;23.292;2023-02-21T01:22:38;68140.69;;;5.47;94.42
22930;BME280;11630;42.660;23.292;2023-02-21T01:25:25;68155.57;;;5.57;94.87
22930;BME280;11630;42.660;23.292;2023-02-21T01:28:12;68187.83;;;5.88;93.14
22930;BME280;11630;42.660;23.292;2023-02-21T01:30:59;68157.49;;;5.63;94.29
22930;BME280;11630;42.660;23.292;2023-02-21T01:33:46;68164.78;;;5.68;93.82
22930;BME280;11630;42.660;23.292;2023-02-21T01:36:33;68178.36;;;5.83;93.90
22930;BME280;11630;42.660;23.292;2023-02-21T01:39:20;68151.78;;;5.54;94.58
22930;BME280;11630;42.660;23.292;2023-02-21T01:42:11;68144.22;;;5.52;95.11
22930;BME280;11630;42.660;23.292;2023-02-21T01:48:12;68181.03;;;5.81;94.06
22930;BME280;11630;42.660;23.292;2023-02-21T01:50:59;68148.56;;;5.56;94.51
22930;BME280;11630;42.660;23.292;2023-02-21T01:53:46;68179.17;;;5.83;93.99
22930;BME280;11630;42.660;23.292;2023-02-21T01:56:33;68175.91;;;5.80;93.80
22930;BME280;11630;42.660;23.292;2023-02-21T01:59:24;68199.73;;;6.02;93.26
22930;BME280;11630;42.660;23.292;2023-02-21T02:02:19;68191.08;;;5.94;93.16
22930;BME280;11630;42.660;23.292;2023-02-21T02:05:06;68182.13;;;5.84;92.67
22930;BME280;11630;42.660;23.292;2023-02-21T02:07:52;68183.80;;;5.91;92.53
22930;BME280;11630;42.660;23.292;2023-02-21T02:10:40;68169.66;;;5.73;93.90
22930;BME280;11630;42.660;23.292;2023-02-21T02:16:45;68186.75;;;5.90;92.90
22930;BME280;11630;42.660;23.292;2023-02-21T02:36:46;68194.59;;;5.96;91.99
22930;BME280;11630;42.660;23.292;2023-02-21T02:39:39;68165.61;;;5.73;93.40
22930;BME280;11630;42.660;23.292;2023-02-21T02:45:08;68203.00;;;6.05;93.18
22930;BME280;11630;42.660;23.292;2023-02-21T02:47:35;68196.77;;;5.98;91.86
22930;BME280;11630;42.660;23.292;2023-02-21T02:50:07;68207.61;;;6.08;91.42
22930;BME280;11630;42.660;23.292;2023-02-21T02:52:53;68216.80;;;6.16;91.07
22930;BME280;11630;42.660;23.292;2023-02-21T02:55:40;68234.14;;;6.29;90.21
22930;BME280;11630;42.660;23.292;2023-02-21T02:58:11;68208.40;;;6.07;90.67
22930;BME280;11630;42.660;23.292;2023-02-21T03:00:44;68197.84;;;5.99;91.08
22930;BME280;11630;42.660;23.292;2023-02-21T03:04:08;68174.26;;;5.76;92.25
22930;BME280;11630;42.660;23.292;2023-02-21T03:06:12;68192.97;;;5.94;92.59
22930;BME280;11630;42.660;23.292;2023-02-21T03:11:27;68178.34;;;5.81;92.25
22930;BME280;11630;42.660;23.292;2023-02-21T03:14:14;68200.02;;;6.01;91.90
22930;BME280;11630;42.660;23.292;2023-02-21T03:16:54;68184.05;;;5.90;91.39
22930;BME280;11630;42.660;23.292;2023-02-21T03:19:26;68168.32;;;5.75;92.23
22930;BME280;11630;42.660;23.292;2023-02-21T03:22:10;68164.25;;;5.68;92.22
22930;BME280;11630;42.660;23.292;2023-02-21T03:24:42;68121.48;;;5.31;94.87
22930;BME280;11630;42.660;23.292;2023-02-21T03:27:13;68131.19;;;5.35;94.65
22930;BME280;11630;42.660;23.292;2023-02-21T03:29:49;68167.50;;;5.71;94.26
22930;BME280;11630;42.660;23.292;2023-02-21T03:32:29;68179.42;;;5.82;93.06
22930;BME280;11630;42.660;23.292;2023-02-21T03:34:56;68186.19;;;5.87;93.18
22930;BME280;11630;42.660;23.292;2023-02-21T03:37:35;68140.42;;;5.46;93.69
22930;BME280;11630;42.660;23.292;2023-02-21T03:40:08;68154.49;;;5.59;93.38
22930;BME280;11630;42.660;23.292;2023-02-21T03:42:38;68163.98;;;5.69;92.76
22930;BME280;11630;42.660;23.292;2023-02-21T03:45:08;68180.21;;;5.79;91.88
22930;BME280;11630;42.660;23.292;2023-02-21T03:47:39;68181.60;;;5.84;92.07
22930;BME280;11630;42.660;23.292;2023-02-21T03:50:12;68162.88;;;5.63;92.64
22930;BME280;11630;42.660;23.292;2023-02-21T03:52:43;68119.58;;;5.28;94.19
22930;BME280;11630;42.660;23.292;2023-02-21T03:55:13;68104.66;;;5.08;95.72
22930;BME280;11630;42.660;23.292;2023-02-21T03:57:43;68115.78;;;5.22;95.29
22930;BME280;11630;42.660;23.292;2023-02-21T04:00:14;68100.11;;;5.10;95.52
22930;BME280;11630;42.660;23.292;2023-02-21T04:02:45;68083.05;;;4.93;97.05
22930;BME280;11630;42.660;23.292;2023-02-21T04:05:18;68110.11;;;5.18;96.13
22930;BME280;11630;42.660;23.292;2023-02-21T04:07:48;68132.83;;;5.36;95.50
22930;BME280;11630;42.660;23.292;2023-02-21T04:10:18;68129.06;;;5.38;94.58
22930;BME280;11630;42.660;23.292;2023-02-21T04:12:50;68123.92;;;5.32;94.71
22930;BME280;11630;42.660;23.292;2023-02-21T04:15:20;68097.67;;;5.09;96.29
22930;BME280;11630;42.660;23.292;2023-02-21T04:17:51;68119.83;;;5.25;96.22
22930;BME280;11630;42.660;23.292;2023-02-21T04:20:22;68136.64;;;5.45;94.86
22930;BME280;11630;42.660;23.292;2023-02-21T04:22:54;68116.62;;;5.27;95.28
22930;BME280;11630;42.660;23.292;2023-02-21T04:25:24;68119.86;;;5.27;95.02
22930;BME280;11630;42.660;23.292;2023-02-21T04:27:55;68117.40;;;5.24;95.55
22930;BME280;11630;42.660;23.292;2023-02-21T04:30:26;68109.81;;;5.14;96.26
22930;BME280;11630;42.660;23.292;2023-02-21T04:32:56;68111.15;;;5.14;95.88
22930;BME280;11630;42.660;23.292;2023-02-21T04:35:27;68090.89;;;5.02;96.27
22930;BME280;11630;42.660;23.292;2023-02-21T04:37:57;68108.20;;;5.15;95.95
22930;BME280;11630;42.660;23.292;2023-02-21T04:40:27;68112.81;;;5.21;95.81
22930;BME280;11630;42.660;23.292;2023-02-21T04:42:58;68128.50;;;5.35;95.09
22930;BME280;11630;42.660;23.292;2023-02-21T04:45:29;68142.03;;;5.45;94.73
22930;BME280;11630;42.660;23.292;2023-02-21T04:48:00;68126.90;;;5.36;95.01
22930;BME280;11630;42.660;23.292;2023-02-21T04:50:30;68148.52;;;5.51;94.51
22930;BME280;11630;42.660;23.292;2023-02-21T04:53:01;68119.32;;;5.29;95.57
22930;BME280;11630;42.660;23.292;2023-02-21T04:55:32;68129.05;;;5.33;95.32
22930;BME280;11630;42.660;23.292;2023-02-21T04:58:03;68130.95;;;5.38;94.93
22930;BME280;11630;42.660;23.292;2023-02-21T05:00:34;68116.86;;;5.23;95.89
22930;BME280;11630;42.660;23.292;2023-02-21T05:03:05;68109.28;;;5.16;95.29
22930;BME280;11630;42.660;23.292;2023-02-21T05:05:36;68102.53;;;5.11;95.79
22930;BME280;11630;42.660;23.292;2023-02-21T05:08:07;68071.15;;;4.82;97.61
22930;BME280;11630;42.660;23.292;2023-02-21T05:10:38;68094.39;;;5.01;97.28
22930;BME280;11630;42.660;23.292;2023-02-21T05:13:09;68112.80;;;5.18;96.12
22930;BME280;11630;42.660;23.292;2023-02-21T05:15:39;68099.54;;;5.07;96.53
22930;BME280;11630;42.660;23.292;2023-02-21T05:18:09;68129.34;;;5.39;95.85
22930;BME280;11630;42.660;23.292;2023-02-21T05:20:40;68138.77;;;5.42;94.71
22930;BME280;11630;42.660;23.292;2023-02-21T05:23:10;68129.59;;;5.38;94.88
22930;BME280;11630;42.660;23.292;2023-02-21T05:25:41;68122.02;;;5.29;95.04
22930;BME280;11630;42.660;23.292;2023-02-21T05:28:12;68120.14;;;5.31;95.21
22930;BME280;11630;42.660;23.292;2023-02-21T05:30:43;68120.37;;;5.23;95.65
22930;BME280;11630;42.660;23.292;2023-02-21T05:33:14;68131.50;;;5.39;95.23
22930;BME280;11630;42.660;23.292;2023-02-21T05:35:45;68110.38;;;5.17;95.56
22930;BME280;11630;42.660;23.292;2023-02-21T05:38:16;68113.91;;;5.24;96.59
22930;BME280;11630;42.660;23.292;2023-02-21T05:40:48;68126.35;;;5.33;95.65
22930;BME280;11630;42.660;23.292;2023-02-21T05:43:19;68133.36;;;5.37;95.90
22930;BME280;11630;42.660;23.292;2023-02-21T05:45:50;68129.30;;;5.32;95.83
22930;BME280;11630;42.660;23.292;2023-02-21T05:48:22;68094.96;;;5.04;96.45
22930;BME280;11630;42.660;23.292;2023-02-21T05:50:52;68112.81;;;5.21;96.21
22930;BME280;11630;42.660;23.292;2023-02-21T05:53:22;68110.10;;;5.16;96.49
22930;BME280;11630;42.660;23.292;2023-02-21T05:55:53;68113.08;;;5.20;96.36
22930;BME280;11630;42.660;23.292;2023-02-21T05:58:23;68150.13;;;5.50;95.21
22930;BME280;11630;42.660;23.292;2023-02-21T06:00:54;68138.55;;;5.48;94.84
22930;BME280;11630;42.660;23.292;2023-02-21T06:03:24;68187.84;;;5.91;93.50
22930;BME280;11630;42.660;23.292;2023-02-21T06:05:55;68181.60;;;5.84;93.41
22930;BME280;11630;42.660;23.292;2023-02-21T06:08:25;68187.02;;;5.91;93.74
22930;BME280;11630;42.660;23.292;2023-02-21T06:10:55;68162.61;;;5.64;93.66
22930;BME280;11630;42.660;23.292;2023-02-21T06:13:26;68195.68;;;5.97;93.24
22930;BME280;11630;42.660;23.292;2023-02-21T06:15:57;68218.14;;;6.13;92.55
22930;BME280;11630;42.660;23.292;2023-02-21T06:18:28;68226.55;;;6.22;92.12
22930;BME280;11630;42.660;23.292;2023-02-21T06:20:59;68237.94;;;6.35;90.17
22930;BME280;11630;42.660;23.292;2023-02-21T06:23:29;68234.14;;;6.29;90.53
22930;BME280;11630;42.660;23.292;2023-02-21T06:26:00;68227.09;;;6.23;91.59
22930;BME280;11630;42.660;23.292;2023-02-21T06:28:30;68256.38;;;6.52;90.49
22930;BME280;11630;42.660;23.292;2023-02-21T06:31:02;68264.77;;;6.61;88.93
22930;BME280;11630;42.660;23.292;2023-02-21T06:33:32;68295.66;;;6.87;88.86
22930;BME280;11630;42.660;23.292;2023-02-21T06:36:07;68308.12;;;6.96;87.31
22930;BME280;11630;42.660;23.292;2023-02-21T06:38:38;68308.92;;;6.98;86.89
22930;BME280;11630;42.660;23.292;2023-02-21T06:41:08;68287.25;;;6.81;86.90
22930;BME280;11630;42.660;23.292;2023-02-21T06:43:39;68345.00;;;7.35;85.44
22930;BME280;11630;42.660;23.292;2023-02-21T06:46:14;68350.14;;;7.36;84.55
22930;BME280;11630;42.660;23.292;2023-02-21T06:48:42;68356.68;;;7.47;84.20
22930;BME280;11630;42.660;23.292;2023-02-21T06:51:12;68398.70;;;7.81;83.02
22930;BME280;11630;42.660;23.292;2023-02-21T06:53:46;68396.27;;;7.80;82.58
22930;BME280;11630;42.660;23.292;2023-02-21T06:56:15;68396.00;;;7.81;81.27
22930;BME280;11630;42.660;23.292;2023-02-21T06:58:48;68403.03;;;7.85;81.98
22930;BME280;11630;42.660;23.292;2023-02-21T07:01:18;68430.73;;;8.11;81.42
22930;BME280;11630;42.660;23.292;2023-02-21T07:03:49;68447.03;;;8.26;80.74
22930;BME280;11630;42.660;23.292;2023-02-21T07:06:20;68436.73;;;8.21;80.71
22930;BME280;11630;42.660;23.292;2023-02-21T07:08:52;68491.02;;;8.68;78.26
22930;BME280;11630;42.660;23.292;2023-02-21T07:11:26;68501.86;;;8.78;77.61
22930;BME280;11630;42.660;23.292;2023-02-21T07:13:57;68488.56;;;8.65;76.88
22930;BME280;11630;42.660;23.292;2023-02-21T07:16:30;68507.02;;;8.79;77.03
22930;BME280;11630;42.660;23.292;2023-02-21T07:19:00;68540.16;;;9.12;75.51
22930;BME280;11630;42.660;23.292;2023-02-21T07:21:31;68568.66;;;9.34;74.44
22930;BME280;11630;42.660;23.292;2023-02-21T07:24:00;68551.02;;;9.22;75.10
22930;BME280;11630;42.660;23.292;2023-02-21T07:26:32;68552.92;;;9.22;74.63
22930;BME280;11630;42.660;23.292;2023-02-21T07:29:03;68574.95;;;9.49;73.60
22930;BME280;11630;42.660;23.292;2023-02-21T07:31:33;68539.06;;;9.09;74.89
22930;BME280;11630;42.660;23.292;2023-02-21T07:34:03;68568.93;;;9.33;73.66
22930;BME280;11630;42.660;23.292;2023-02-21T07:36:35;68548.30;;;9.19;74.19
22930;BME280;11630;42.660;23.292;2023-02-21T07:39:05;68608.91;;;9.76;72.17
22930;BME280;11630;42.660;23.292;2023-02-21T07:41:36;68626.28;;;9.90;70.88
22930;BME280;11630;42.660;23.292;2023-02-21T07:44:07;68591.52;;;9.60;71.82
22930;BME280;11630;42.660;23.292;2023-02-21T07:46:38;68632.84;;;9.98;70.53
22930;BME280;11630;42.660;23.292;2023-02-21T07:49:09;68643.44;;;10.04;69.98
22930;BME280;11630;42.660;23.292;2023-02-21T07:51:39;68622.21;;;9.87;70.78
22930;BME280;11630;42.660;23.292;2023-02-21T07:54:09;68617.05;;;9.76;72.09
22930;BME280;11630;42.660;23.292;2023-02-21T07:56:47;68608.09;;;9.74;71.28
22930;BME280;11630;42.660;23.292;2023-02-21T07:59:18;68611.88;;;9.75;71.87
22930;BME280;11630;42.660;23.292;2023-02-21T08:01:48;68624.38;;;9.84;71.02
22930;BME280;11630;42.660;23.292;2023-02-21T08:04:19;68628.47;;;9.94;70.26
22930;BME280;11630;42.660;23.292;2023-02-21T08:06:51;68602.92;;;9.68;70.77
22930;BME280;11630;42.660;23.292;2023-02-21T08:09:21;68572.76;;;9.39;72.76
22930;BME280;11630;42.660;23.292;2023-02-21T08:11:52;68599.66;;;9.65;71.60
22930;BME280;11630;42.660;23.292;2023-02-21T08:14:21;68590.41;;;9.54;71.85
22930;BME280;11630;42.660;23.292;2023-02-21T08:16:52;68582.52;;;9.48;72.44
22930;BME280;11630;42.660;23.292;2023-02-21T08:19:22;68577.63;;;9.44;72.47
22930;BME280;11630;42.660;23.292;2023-02-21T08:21:52;68560.26;;;9.28;73.29
22930;BME280;11630;42.660;23.292;2023-02-21T08:24:22;68566.25;;;9.38;72.65
22930;BME280;11630;42.660;23.292;2023-02-21T08:26:52;68604.81;;;9.69;71.83
22930;BME280;11630;42.660;23.292;2023-02-21T08:29:23;68614.34;;;9.81;71.74
22930;BME280;11630;42.660;23.292;2023-02-21T08:31:54;68601.83;;;9.67;71.71
22930;BME280;11630;42.660;23.292;2023-02-21T08:34:24;68597.23;;;9.69;71.67
22930;BME280;11630;42.660;23.292;2023-02-21T08:36:54;68633.65;;;9.97;71.21
22930;BME280;11630;42.660;23.292;2023-02-21T08:39:24;68664.09;;;10.23;69.65
22930;BME280;11630;42.660;23.292;2023-02-21T08:41:55;68673.08;;;10.35;68.63
22930;BME280;11630;42.660;23.292;2023-02-21T08:44:26;68669.55;;;10.30;68.43
22930;BME280;11630;42.660;23.292;2023-02-21T08:46:55;68666.83;;;10.28;67.46
22930;BME280;11630;42.660;23.292;2023-02-21T08:49:28;68681.50;;;10.41;67.07
22930;BME280;11630;42.660;23.292;2023-02-21T08:52:01;68714.66;;;10.62;67.10
22930;BME280;11630;42.660;23.292;2023-02-21T08:54:32;68729.92;;;10.85;66.09
22930;BME280;11630;42.660;23.292;2023-02-21T08:57:03;68702.71;;;10.61;66.41
22930;BME280;11630;42.660;23.292;2023-02-21T08:59:33;68768.27;;;11.19;64.58
22930;BME280;11630;42.660;23.292;2023-02-21T09:02:03;68737.00;;;10.94;64.59
22930;BME280;11630;42.660;23.292;2023-02-21T09:04:35;68769.09;;;11.24;64.22
22930;BME280;11630;42.660;23.292;2023-02-21T09:07:06;68817.29;;;11.64;62.35
22930;BME280;11630;42.660;23.292;2023-02-21T09:09:40;68788.97;;;11.38;62.68
22930;BME280;11630;42.660;23.292;2023-02-21T09:12:10;68818.38;;;11.60;62.11
22930;BME280;11630;42.660;23.292;2023-02-21T09:14:42;68762.84;;;11.09;63.18
22930;BME280;11630;42.660;23.292;2023-02-21T09:17:13;68794.96;;;11.48;61.81
22930;BME280;11630;42.660;23.292;2023-02-21T09:19:43;68807.75;;;11.54;61.64
22930;BME280;11630;42.660;23.292;2023-02-21T09:22:14;68878.00;;;12.21;59.91
22930;BME280;11630;42.660;23.292;2023-02-21T09:24:44;68894.91;;;12.33;58.19
22930;BME280;11630;42.660;23.292;2023-02-21T09:27:15;68929.77;;;12.65;57.18
22930;BME280;11630;42.660;23.292;2023-02-21T09:29:46;68977.75;;;13.09;55.98
22930;BME280;11630;42.660;23.292;2023-02-21T09:32:16;69029.02;;;13.56;53.83
22930;BME280;11630;42.660;23.292;2023-02-21T09:34:47;69083.03;;;14.00;52.10
22930;BME280;11630;42.660;23.292;2023-02-21T09:37:18;69195.48;;;15.10;48.18
22930;BME280;11630;42.660;23.292;2023-02-21T09:39:48;69243.30;;;15.52;46.54
22930;BME280;11630;42.660;23.292;2023-02-21T09:42:19;69264.63;;;15.69;46.41
22930;BME280;11630;42.660;23.292;2023-02-21T09:44:52;69300.69;;;15.99;45.17
22930;BME280;11630;42.660;23.292;2023-02-21T09:47:31;69379.16;;;16.77;43.08
22930;BME280;11630;42.660;23.292;2023-02-21T09:50:10;69408.70;;;16.98;42.61
22930;BME280;11630;42.660;23.292;2023-02-21T09:52:38;69444.55;;;17.32;41.49
22930;BME280;11630;42.660;23.292;2023-02-21T09:55:30;69494.09;;;17.73;40.25
22930;BME280;11630;42.660;23.292;2023-02-21T09:58:01;69540.08;;;18.13;39.76
22930;BME280;11630;42.660;23.292;2023-02-21T10:00:36;69544.19;;;18.23;38.29
22930;BME280;11630;42.660;23.292;2023-02-21T10:05:49;69571.88;;;18.39;39.06
22930;BME280;11630;42.660;23.292;2023-02-21T10:11:46;69684.20;;;19.46;36.70
22930;BME280;11630;42.660;23.292;2023-02-21T10:13:42;69763.16;;;20.17;35.27
22930;BME280;11630;42.660;23.292;2023-02-21T10:16:20;69783.22;;;20.32;34.55
22930;BME280;11630;42.660;23.292;2023-02-21T10:19:23;69663.90;;;19.30;35.33
22930;BME280;11630;42.660;23.292;2023-02-21T10:21:51;69737.12;;;19.93;34.99
22930;BME280;11630;42.660;23.292;2023-02-21T10:24:24;69802.70;;;20.48;33.31
22930;BME280;11630;42.660;23.292;2023-02-21T10:27:11;69725.27;;;19.91;34.21
22930;BME280;11630;42.660;23.292;2023-02-21T10:29:45;69740.12;;;20.02;33.36
22930;BME280;11630;42.660;23.292;2023-02-21T10:32:10;69763.80;;;20.06;28.30
22930;BME280;11630;42.660;23.292;2023-02-21T10:34:41;69766.50;;;20.15;27.82
22930;BME280;11630;42.660;23.292;2023-02-21T10:37:40;69754.41;;;20.07;27.83
22930;BME280;11630;42.660;23.292;2023-02-21T10:42:53;69778.84;;;20.25;27.89
22930;BME280;11630;42.660;23.292;2023-02-21T10:45:26;69808.94;;;20.65;27.59
22930;BME280;11630;42.660;23.292;2023-02-21T10:48:00;69821.27;;;20.80;27.42
22930;BME280;11630;42.660;23.292;2023-02-21T10:50:51;69803.75;;;20.54;27.37
22930;BME280;11630;42.660;23.292;2023-02-21T10:53:30;69819.09;;;20.76;27.24
22930;BME280;11630;42.660;23.292;2023-02-21T10:56:08;69824.08;;;20.70;27.05
22930;BME280;11630;42.660;23.292;2023-02-21T10:58:55;69865.48;;;21.14;26.95
22930;BME280;11630;42.660;23.292;2023-02-21T11:01:36;69901.27;;;21.34;26.76
22930;BME280;11630;42.660;23.292;2023-02-21T11:09:42;69855.13;;;20.97;26.78
22930;BME280;11630;42.660;23.292;2023-02-21T11:12:22;69928.47;;;21.57;26.45
22930;BME280;11630;42.660;23.292;2023-02-21T11:17:32;69987.14;;;22.23;25.42
22930;BME280;11630;42.660;23.292;2023-02-21T11:20:03;69908.41;;;21.38;26.42
22930;BME280;11630;42.660;23.292;2023-02-21T11:22:48;69924.33;;;21.57;26.46
22930;BME280;11630;42.660;23.292;2023-02-21T11:25:37;69909.14;;;21.55;26.30
22930;BME280;11630;42.660;23.292;2023-02-21T11:33:30;69899.23;;;21.46;26.38
22930;BME280;11630;42.660;23.292;2023-02-21T11:36:12;69953.95;;;21.86;26.42
22930;BME280;11630;42.660;23.292;2023-02-21T11:38:59;69927.80;;;21.71;25.58
22930;BME280;11630;42.660;23.292;2023-02-21T11:41:43;69923.48;;;21.58;26.32
22930;BME280;11630;42.660;23.292;2023-02-21T11:44:35;69962.17;;;21.96;26.44
22930;BME280;11630;42.660;23.292;2023-02-21T11:47:16;69945.11;;;21.86;26.26
22930;BME280;11630;42.660;23.292;2023-02-21T11:50:00;69869.88;;;21.18;26.90
22930;BME280;11630;42.660;23.292;2023-02-21T11:55:02;69926.83;;;21.56;26.80
22930;BME280;11630;42.660;23.292;2023-02-21T12:00:59;69985.52;;;22.19;26.27
22930;BME280;11630;42.660;23.292;2023-02-21T12:03:44;70055.91;;;22.77;25.72
22930;BME280;11630;42.660;23.292;2023-02-21T12:06:30;69957.58;;;21.83;26.59
22930;BME280;11630;42.660;23.292;2023-02-21T12:09:11;69906.69;;;21.49;26.93
22930;BME280;11630;42.660;23.292;2023-02-21T12:14:51;69880.66;;;21.19;27.42
22930;BME280;11630;42.660;23.292;2023-02-21T12:18:09;69905.80;;;21.57;27.16
22930;BME280;11630;42.660;23.292;2023-02-21T12:23:27;69909.70;;;21.50;27.31
22930;BME280;11630;42.660;23.292;2023-02-21T12:28:43;69855.36;;;21.01;27.85
22930;BME280;11630;42.660;23.292;2023-02-21T12:31:19;69840.53;;;20.90;28.03
22930;BME280;11630;42.660;23.292;2023-02-21T12:33:58;69863.61;;;21.06;27.88
22930;BME280;11630;42.660;23.292;2023-02-21T12:42:14;69818.64;;;20.60;28.38
22930;BME280;11630;42.660;23.292;2023-02-21T12:44:51;69817.25;;;20.60;28.61
22930;BME280;11630;42.660;23.292;2023-02-21T12:47:27;69830.11;;;20.78;28.40
22930;BME280;11630;42.660;23.292;2023-02-21T12:50:14;69860.06;;;20.99;28.18
22930;BME280;11630;42.660;23.292;2023-02-21T12:53:00;69787.53;;;20.46;28.55
22930;BME280;11630;42.660;23.292;2023-02-21T12:58:42;69846.86;;;20.92;28.25
22930;BME280;11630;42.660;23.292;2023-02-21T13:01:46;69874.31;;;21.17;28.19
22930;BME280;11630;42.660;23.292;2023-02-21T13:03:54;69901.88;;;21.27;27.97
22930;BME280;11630;42.660;23.292;2023-02-21T13:17:39;69909.12;;;21.57;27.59
22930;BME280;11630;42.660;23.292;2023-02-21T13:20:15;69871.22;;;21.23;27.28
22930;BME280;11630;42.660;23.292;2023-02-21T13:28:52;69802.11;;;20.53;28.16
22930;BME280;11630;42.660;23.292;2023-02-21T13:31:33;69775.18;;;20.36;28.27
22930;BME280;11630;42.660;23.292;2023-02-21T13:34:16;69778.52;;;20.34;28.21
22930;BME280;11630;42.660;23.292;2023-02-21T13:39:15;69723.66;;;19.82;28.49
22930;BME280;11630;42.660;23.292;2023-02-21T13:41:50;69698.44;;;19.59;28.74
22930;BME280;11630;42.660;23.292;2023-02-21T13:44:28;69680.56;;;19.54;28.75
22930;BME280;11630;42.660;23.292;2023-02-21T13:49:48;69691.27;;;19.60;29.07
22930;BME280;11630;42.660;23.292;2023-02-21T13:52:26;69702.55;;;19.61;28.91
22930;BME280;11630;42.660;23.292;2023-02-21T13:55:21;69686.90;;;19.56;28.53
22930;BME280;11630;42.660;23.292;2023-02-21T14:08:30;69690.45;;;19.58;28.02
22930;BME280;11630;42.660;23.292;2023-02-21T14:13:48;69686.90;;;19.56;27.89
22930;BME280;11630;42.660;23.292;2023-02-21T14:16:33;69674.01;;;19.43;29.04
22930;BME280;11630;42.660;23.292;2023-02-21T14:19:08;69687.23;;;19.45;29.20
22930;BME280;11630;42.660;23.292;2023-02-21T14:21:59;69684.75;;;19.44;29.44
22930;BME280;11630;42.660;23.292;2023-02-21T14:24:34;69677.33;;;19.43;29.57
22930;BME280;11630;42.660;23.292;2023-02-21T14:30:13;69677.59;;;19.45;29.68
22930;BME280;11630;42.660;23.292;2023-02-21T14:32:44;69660.05;;;19.29;29.64
22930;BME280;11630;42.660;23.292;2023-02-21T14:35:25;69645.27;;;19.08;29.86
22930;BME280;11630;42.660;23.292;2023-02-21T14:47:05;69567.97;;;18.51;29.57
22930;BME280;11630;42.660;23.292;2023-02-21T15:04:22;69512.94;;;17.97;30.00
22930;BME280;11630;42.660;23.292;2023-02-21T15:09:30;69486.38;;;17.79;30.21
22930;BME280;11630;42.660;23.292;2023-02-21T15:12:03;69482.32;;;17.64;29.92
22930;BME280;11630;42.660;23.292;2023-02-21T15:14:35;69485.01;;;17.74;29.34
22930;BME280;11630;42.660;23.292;2023-02-21T15:17:12;69495.99;;;17.79;28.95
22930;BME280;11630;42.660;23.292;2023-02-21T15:19:42;69506.41;;;17.81;29.00
22930;BME280;11630;42.660;23.292;2023-02-21T15:22:24;69481.73;;;17.71;29.36
22930;BME280;11630;42.660;23.292;2023-02-21T15:30:20;69472.70;;;17.64;29.55
22930;BME280;11630;42.660;23.292;2023-02-21T15:33:14;69468.61;;;17.57;30.02
22930;BME280;11630;42.660;23.292;2023-02-21T15:36:00;69442.05;;;17.39;30.49
22930;BME280;11630;42.660;23.292;2023-02-21T15:38:32;69444.82;;;17.31;30.25
22930;BME280;11630;42.660;23.292;2023-02-21T15:41:27;69437.70;;;17.27;30.45
22930;BME280;11630;42.660;23.292;2023-02-21T15:44:09;69430.58;;;17.18;30.10
22930;BME280;11630;42.660;23.292;2023-02-21T15:46:31;69427.31;;;17.10;30.13
22930;BME280;11630;42.660;23.292;2023-02-21T15:49:02;69397.73;;;16.93;30.78
22930;BME280;11630;42.660;23.292;2023-02-21T15:51:36;69392.81;;;16.89;30.42
22930;BME280;11630;42.660;23.292;2023-02-21T15:54:21;69382.14;;;16.81;30.68
22930;BME280;11630;42.660;23.292;2023-02-21T15:56:41;69374.23;;;16.72;30.76
22930;BME280;11630;42.660;23.292;2023-02-21T15:59:18;69369.03;;;16.64;31.19
22930;BME280;11630;42.660;23.292;2023-02-21T16:02:15;69375.59;;;16.75;31.32
22930;BME280;11630;42.660;23.292;2023-02-21T16:04:52;69355.92;;;16.52;31.48
22930;BME280;11630;42.660;23.292;2023-02-21T16:07:33;69350.45;;;16.47;31.50